Time;durP1;ratioP1;P1;durP2;ratioP2;P2;SDS_P1;SDS_P2;PMS_P1;PMS_P2;Temp;Humidity;BMP_temperature;BMP_pressure;BME280_temperature;BME280_humidity;BME280_pressure;Samples;Min_cycle;Max_cycle;Signal;HPM_P1;HPM_P2
2020/12/30 00:02:12;;;;;;;2.67;1.63;;;2.20;99.90;;;;;;5014140;28;20986;-67
2020/12/30 00:04:38;;;;;;;1.70;1.27;;;2.20;99.90;;;;;;5014506;28;20447;-67
2020/12/30 00:07:04;;;;;;;1.60;1.50;;;2.20;99.90;;;;;;5014196;28;20955;-67
2020/12/30 00:09:30;;;;;;;1.93;1.70;;;2.10;99.90;;;;;;5014431;28;20448;-67
2020/12/30 00:11:57;;;;;;;1.20;1.10;;;2.10;99.90;;;;;;5014263;28;20883;-67
2020/12/30 00:14:23;;;;;;;1.30;1.20;;;2.20;99.90;;;;;;5014333;28;20444;-67
2020/12/30 00:16:49;;;;;;;1.50;1.40;;;2.20;99.90;;;;;;5014342;28;20452;-67
2020/12/30 00:19:16;;;;;;;2.80;1.40;;;2.30;99.90;;;;;;5013928;28;20947;-67
2020/12/30 00:21:42;;;;;;;1.37;1.20;;;2.30;99.90;;;;;;5013776;28;20479;-67
2020/12/30 00:24:08;;;;;;;1.57;1.47;;;2.30;99.90;;;;;;5013880;28;20940;-67
2020/12/30 00:26:34;;;;;;;2.27;1.40;;;2.30;99.90;;;;;;5014137;28;20528;-67
2020/12/30 00:29:01;;;;;;;1.70;1.50;;;2.30;99.90;;;;;;5014111;28;20452;-67
2020/12/30 00:31:29;;;;;;;1.33;1.23;;;2.30;99.90;;;;;;5014017;28;20458;-67
2020/12/30 00:33:56;;;;;;;1.50;1.40;;;2.40;99.90;;;;;;5013930;28;20480;-67
2020/12/30 00:36:22;;;;;;;1.87;1.43;;;2.30;99.90;;;;;;5013620;28;20940;-67
2020/12/30 00:38:48;;;;;;;1.90;1.63;;;2.20;99.90;;;;;;5013958;28;20518;-67
2020/12/30 00:41:15;;;;;;;1.53;1.43;;;2.30;99.90;;;;;;5013623;28;20939;-67
2020/12/30 00:43:42;;;;;;;1.67;1.57;;;2.30;99.90;;;;;;5013809;28;20468;-67
2020/12/30 00:46:15;;;;;;;1.53;1.43;;;2.30;99.90;;;;;;5013834;28;20444;-67
2020/12/30 00:48:41;;;;;;;1.63;1.53;;;2.50;99.90;;;;;;5013837;28;20442;-67
2020/12/30 00:51:12;;;;;;;2.10;1.90;;;2.50;99.90;;;;;;5013412;28;21004;-67
2020/12/30 00:53:39;;;;;;;2.40;1.57;;;2.50;99.90;;;;;;5013941;28;20470;-67
2020/12/30 00:56:07;;;;;;;2.10;1.77;;;2.50;99.90;;;;;;5013642;28;20498;-67
2020/12/30 00:58:33;;;;;;;1.70;1.60;;;2.60;99.90;;;;;;5013689;28;20444;-67
2020/12/30 01:00:59;;;;;;;2.37;1.90;;;2.70;99.90;;;;;;5013694;28;20476;-67
2020/12/30 01:03:26;;;;;;;2.30;2.10;;;2.70;99.90;;;;;;5013575;28;20472;-67
2020/12/30 01:05:52;;;;;;;2.40;1.70;;;2.70;99.90;;;;;;5013618;28;20462;-67
2020/12/30 01:08:19;;;;;;;2.30;1.90;;;2.70;99.90;;;;;;5013581;28;20800;-67
2020/12/30 01:10:45;;;;;;;2.13;2.00;;;2.60;99.90;;;;;;5013464;28;20479;-67
2020/12/30 01:13:11;;;;;;;2.50;1.93;;;2.50;99.90;;;;;;5013073;28;20490;-67
2020/12/30 01:15:38;;;;;;;2.80;1.97;;;2.50;99.90;;;;;;5013518;28;20443;-67
2020/12/30 01:18:04;;;;;;;3.30;1.93;;;2.60;99.90;;;;;;5013457;28;20455;-67
2020/12/30 01:20:31;;;;;;;2.40;1.93;;;2.50;99.90;;;;;;5013049;28;20454;-67
2020/12/30 01:22:57;;;;;;;1.87;1.70;;;2.50;99.90;;;;;;5013133;28;20982;-67
2020/12/30 01:25:23;;;;;;;1.93;1.83;;;2.60;99.90;;;;;;5013408;28;20447;-67
2020/12/30 01:27:49;;;;;;;1.53;1.43;;;2.50;99.90;;;;;;5013398;28;20454;-67
2020/12/30 01:30:16;;;;;;;2.00;1.83;;;2.50;99.90;;;;;;5013284;28;20479;-67
2020/12/30 01:32:42;;;;;;;1.90;1.50;;;2.40;99.90;;;;;;5013274;28;20471;-67
2020/12/30 01:35:08;;;;;;;2.00;1.80;;;2.40;99.90;;;;;;5013047;28;20472;-67
2020/12/30 01:37:35;;;;;;;2.30;1.97;;;2.40;99.90;;;;;;5013265;28;20493;-67
2020/12/30 01:40:02;;;;;;;1.70;1.60;;;2.50;99.90;;;;;;5013011;28;21010;-67
2020/12/30 01:42:28;;;;;;;3.63;1.73;;;2.50;99.90;;;;;;5013195;28;20464;-67
2020/12/30 01:44:54;;;;;;;2.07;1.43;;;2.40;99.90;;;;;;5013247;28;20517;-67
2020/12/30 01:47:20;;;;;;;2.23;1.93;;;2.40;99.90;;;;;;5013185;28;20474;-67
2020/12/30 01:49:48;;;;;;;2.17;1.97;;;2.50;99.90;;;;;;5013189;28;20501;-67
2020/12/30 01:52:14;;;;;;;2.07;1.87;;;2.50;99.90;;;;;;5013037;28;20494;-67
2020/12/30 01:54:41;;;;;;;3.00;1.83;;;2.50;99.90;;;;;;5013162;28;20838;-67
2020/12/30 01:57:08;;;;;;;2.17;1.90;;;2.50;99.90;;;;;;5013120;28;20426;-67
2020/12/30 01:59:35;;;;;;;1.70;1.53;;;2.50;99.90;;;;;;5013019;28;20425;-67
2020/12/30 02:02:05;;;;;;;1.77;1.60;;;2.50;99.90;;;;;;5012936;28;20847;-67
2020/12/30 02:04:51;;;;;;;2.20;1.80;;;2.50;99.90;;;;;;5012810;28;20932;-67
2020/12/30 02:07:18;;;;;;;3.30;1.83;;;2.50;99.90;;;;;;5012800;28;20438;-67
2020/12/30 02:09:45;;;;;;;2.27;1.50;;;2.50;99.90;;;;;;5013028;28;20454;-67
2020/12/30 02:12:13;;;;;;;2.10;1.50;;;2.50;99.90;;;;;;5013085;28;20478;-67
2020/12/30 02:14:39;;;;;;;2.80;1.50;;;2.50;99.90;;;;;;5012963;28;20813;-67
2020/12/30 02:17:06;;;;;;;2.30;1.83;;;2.50;99.90;;;;;;5012937;28;20444;-67
2020/12/30 02:19:32;;;;;;;1.40;1.30;;;2.60;99.90;;;;;;5012895;28;20827;-67
2020/12/30 02:22:02;;;;;;;1.83;1.73;;;2.60;99.90;;;;;;5012396;28;20487;-67
2020/12/30 02:24:29;;;;;;;1.47;1.37;;;2.60;99.90;;;;;;5013181;28;20490;-67
2020/12/30 02:26:56;;;;;;;2.10;2.00;;;2.60;99.90;;;;;;5015736;28;20443;-67
2020/12/30 02:29:22;;;;;;;3.50;1.60;;;2.60;99.90;;;;;;5016348;28;20851;-67
2020/12/30 02:31:49;;;;;;;1.80;1.50;;;2.60;99.90;;;;;;5016442;28;20482;-67
2020/12/30 02:34:15;;;;;;;1.70;1.40;;;2.70;99.90;;;;;;5016242;28;20501;-67
2020/12/30 02:36:41;;;;;;;2.00;1.30;;;2.70;99.90;;;;;;5016211;28;20426;-67
2020/12/30 02:39:07;;;;;;;1.90;1.73;;;2.60;99.90;;;;;;5015846;28;20449;-67
2020/12/30 02:41:35;;;;;;;1.87;1.50;;;2.70;99.90;;;;;;5016084;28;20470;-66
2020/12/30 02:44:03;;;;;;;1.83;1.73;;;2.60;99.90;;;;;;5016008;28;20447;-67
2020/12/30 02:46:29;;;;;;;1.43;1.33;;;2.60;99.90;;;;;;5016018;28;20443;-67
2020/12/30 02:48:56;;;;;;;1.60;1.50;;;2.60;99.90;;;;;;5015981;28;20448;-67
2020/12/30 02:51:22;;;;;;;2.07;1.70;;;2.60;99.90;;;;;;5015544;28;20973;-67
2020/12/30 02:53:49;;;;;;;1.27;1.17;;;2.60;99.90;;;;;;5015508;28;21053;-67
2020/12/30 02:56:16;;;;;;;1.60;1.50;;;2.50;99.90;;;;;;5015531;28;20797;-67
2020/12/30 02:58:44;;;;;;;2.50;1.27;;;2.50;99.90;;;;;;5015748;28;20454;-67
2020/12/30 03:01:10;;;;;;;1.30;1.20;;;2.40;99.90;;;;;;5007547;28;20440;-67
2020/12/30 03:03:37;;;;;;;1.47;1.27;;;2.50;99.90;;;;;;5015604;28;20468;-67
2020/12/30 03:06:03;;;;;;;1.90;1.20;;;2.50;99.90;;;;;;5015353;28;20455;-67
2020/12/30 03:08:29;;;;;;;1.40;1.30;;;2.50;99.90;;;;;;5015623;28;20470;-67
2020/12/30 03:10:56;;;;;;;1.30;1.20;;;2.50;99.90;;;;;;5015440;28;20510;-67
2020/12/30 03:13:22;;;;;;;1.30;1.10;;;2.40;99.90;;;;;;5015446;28;20464;-67
2020/12/30 03:15:49;;;;;;;2.50;1.40;;;2.40;99.90;;;;;;5015453;28;20451;-67
2020/12/30 03:18:15;;;;;;;1.20;1.10;;;2.30;99.90;;;;;;5015435;28;20447;-67
2020/12/30 03:20:41;;;;;;;2.90;1.20;;;2.20;99.90;;;;;;5015187;28;20487;-67
2020/12/30 03:23:08;;;;;;;1.20;1.10;;;2.20;99.90;;;;;;5015271;28;20468;-67
2020/12/30 03:25:34;;;;;;;2.97;1.40;;;2.10;99.90;;;;;;5014966;28;20444;-66
2020/12/30 03:28:00;;;;;;;1.20;1.10;;;2.10;99.90;;;;;;5015268;28;20447;-66
2020/12/30 03:30:27;;;;;;;1.20;1.10;;;2.10;99.90;;;;;;5015022;28;20471;-67
2020/12/30 03:32:54;;;;;;;2.40;1.10;;;2.00;99.90;;;;;;5015088;28;20464;-67
2020/12/30 03:35:24;;;;;;;1.80;1.23;;;1.90;99.90;;;;;;5015067;28;20443;-67
2020/12/30 03:37:51;;;;;;;1.47;1.03;;;1.90;99.90;;;;;;5015050;28;20787;-66
2020/12/30 03:40:17;;;;;;;1.40;1.30;;;2.00;99.90;;;;;;5014640;28;20443;-66
2020/12/30 03:42:43;;;;;;;2.20;1.33;;;2.00;99.90;;;;;;5014907;28;20463;-67
2020/12/30 03:45:09;;;;;;;1.33;1.23;;;1.90;99.90;;;;;;5014938;28;20494;-67
2020/12/30 03:47:35;;;;;;;1.20;1.10;;;2.00;99.90;;;;;;5014839;28;20443;-67
2020/12/30 03:50:03;;;;;;;1.43;1.33;;;1.90;99.90;;;;;;5014824;28;20439;-67
2020/12/30 03:52:29;;;;;;;1.30;1.30;;;2.00;99.90;;;;;;5014658;28;20494;-67
2020/12/30 03:54:55;;;;;;;1.43;1.33;;;1.90;99.90;;;;;;5014417;28;20451;-67
2020/12/30 03:57:21;;;;;;;2.80;1.13;;;1.90;99.90;;;;;;5014700;28;20456;-67
2020/12/30 03:59:47;;;;;;;1.20;1.10;;;1.80;99.90;;;;;;5014635;28;20455;-67
2020/12/30 04:02:14;;;;;;;1.47;1.37;;;1.80;99.90;;;;;;5014209;28;20463;-67
2020/12/30 04:04:40;;;;;;;3.93;1.20;;;1.80;99.90;;;;;;5014552;28;20443;-67
2020/12/30 04:07:07;;;;;;;1.30;1.20;;;1.80;99.90;;;;;;5014232;28;20966;-67
2020/12/30 04:09:33;;;;;;;7.43;1.80;;;1.80;99.90;;;;;;5014467;28;20451;-67
2020/12/30 04:11:59;;;;;;;4.53;1.30;;;1.80;99.90;;;;;;5014209;28;20498;-67
2020/12/30 04:14:25;;;;;;;2.07;1.10;;;1.80;99.90;;;;;;5014046;28;20498;-67
2020/12/30 04:16:52;;;;;;;1.60;1.00;;;1.90;99.90;;;;;;5014320;28;20418;-67
2020/12/30 04:19:18;;;;;;;1.00;1.00;;;2.00;99.90;;;;;;5014296;28;20454;-67
2020/12/30 04:21:44;;;;;;;4.73;1.63;;;2.00;99.90;;;;;;5013844;28;20475;-69
2020/12/30 04:24:12;;;;;;;2.40;1.47;;;2.10;99.90;;;;;;5014207;28;20470;-69
2020/12/30 04:26:38;;;;;;;2.00;1.40;;;2.10;99.90;;;;;;5013856;28;20444;-69
2020/12/30 04:29:04;;;;;;;3.17;1.80;;;2.10;99.90;;;;;;5013825;28;20471;-69
2020/12/30 04:31:30;;;;;;;2.20;1.53;;;2.00;99.90;;;;;;5013993;28;20480;-69
2020/12/30 04:33:57;;;;;;;1.70;1.40;;;2.00;99.90;;;;;;5014012;28;20467;-69
2020/12/30 04:36:23;;;;;;;2.00;1.80;;;2.00;99.90;;;;;;5013754;28;20926;-69
2020/12/30 04:38:49;;;;;;;1.67;1.20;;;2.00;99.90;;;;;;5014029;28;20444;-69
2020/12/30 04:41:20;;;;;;;2.33;1.90;;;2.10;99.90;;;;;;5013940;28;20446;-69
2020/12/30 04:43:48;;;;;;;1.50;1.40;;;2.10;99.90;;;;;;5013875;28;20467;-69
2020/12/30 04:46:16;;;;;;;1.17;1.00;;;2.20;99.90;;;;;;5013594;28;20446;-69
2020/12/30 04:48:42;;;;;;;1.40;1.27;;;2.20;99.90;;;;;;5013433;28;20439;-71
2020/12/30 04:51:10;;;;;;;2.40;1.20;;;2.20;99.90;;;;;;5005842;28;20534;-71
2020/12/30 04:53:37;;;;;;;1.40;1.30;;;2.20;99.90;;;;;;5013709;28;20449;-69
2020/12/30 04:56:03;;;;;;;1.20;1.10;;;2.30;99.90;;;;;;5013735;28;20810;-69
2020/12/30 04:58:31;;;;;;;1.30;1.20;;;2.30;99.90;;;;;;5013415;28;20947;-69
2020/12/30 05:00:59;;;;;;;1.43;0.80;;;2.30;99.90;;;;;;5013400;28;20443;-69
2020/12/30 05:03:28;;;;;;;3.20;1.37;;;2.20;99.90;;;;;;5013584;28;20463;-69
2020/12/30 05:05:56;;;;;;;1.90;1.33;;;2.20;99.90;;;;;;5013616;28;20478;-69
2020/12/30 05:08:22;;;;;;;2.10;1.20;;;2.10;99.90;;;;;;5013571;28;20483;-69
2020/12/30 05:10:52;;;;;;;3.33;1.03;;;2.10;99.90;;;;;;5013217;28;20482;-69
2020/12/30 05:13:18;;;;;;;0.90;0.90;;;2.00;99.90;;;;;;5013716;28;20475;-69
2020/12/30 05:15:45;;;;;;;1.03;0.93;;;2.00;99.90;;;;;;5013534;28;20450;-69
2020/12/30 05:18:12;;;;;;;2.20;1.03;;;2.00;99.90;;;;;;5013489;28;20517;-69
2020/12/30 05:20:38;;;;;;;1.40;0.93;;;2.00;99.90;;;;;;5013070;28;21031;-69
2020/12/30 05:23:06;;;;;;;1.20;0.83;;;2.00;99.90;;;;;;5013417;28;20445;-70
2020/12/30 05:25:34;;;;;;;2.10;1.10;;;1.90;99.90;;;;;;5013092;28;21018;-69
2020/12/30 05:28:03;;;;;;;1.20;1.10;;;1.90;99.90;;;;;;5013406;28;20483;-69
2020/12/30 05:30:30;;;;;;;4.40;2.03;;;1.90;99.90;;;;;;5013306;28;20458;-69
2020/12/30 05:32:58;;;;;;;1.17;1.13;;;1.90;99.90;;;;;;5013246;28;20495;-70
2020/12/30 05:35:25;;;;;;;1.63;0.90;;;2.00;99.90;;;;;;5013356;28;20418;-69
2020/12/30 05:37:51;;;;;;;1.13;1.03;;;2.10;99.90;;;;;;5013307;28;20505;-69
2020/12/30 05:40:22;;;;;;;2.20;1.27;;;2.10;99.90;;;;;;5013323;28;20450;-69
2020/12/30 05:42:48;;;;;;;1.20;1.10;;;2.10;99.90;;;;;;5012860;28;20995;-70
2020/12/30 05:45:19;;;;;;;1.17;1.07;;;2.00;99.90;;;;;;5013218;28;20443;-69
2020/12/30 05:47:45;;;;;;;1.10;1.00;;;1.90;99.90;;;;;;5013242;28;20463;-69
2020/12/30 05:50:12;;;;;;;1.33;1.03;;;2.00;99.90;;;;;;5013247;28;20432;-69
2020/12/30 05:52:40;;;;;;;1.30;1.20;;;2.10;99.90;;;;;;5013082;28;20470;-69
2020/12/30 05:55:09;;;;;;;3.20;1.27;;;2.10;99.90;;;;;;5013941;28;20502;-69
2020/12/30 05:57:37;;;;;;;1.30;1.20;;;2.10;99.90;;;;;;5013152;28;20526;-70
2020/12/30 06:00:07;;;;;;;1.33;1.23;;;2.10;99.90;;;;;;5015173;28;20843;-69
2020/12/30 06:02:34;;;;;;;2.70;2.07;;;2.20;99.90;;;;;;5016796;28;20505;-69
2020/12/30 06:05:14;;;;;;;1.97;1.57;;;2.30;99.90;;;;;;5016782;28;20451;-69
2020/12/30 06:07:42;;;;;;;2.20;2.00;;;2.40;99.90;;;;;;5016812;28;20541;-69
2020/12/30 06:10:09;;;;;;;3.17;1.87;;;2.30;99.90;;;;;;5016703;28;20451;-69
2020/12/30 06:12:43;;;;;;;4.00;2.60;;;2.40;99.90;;;;;;5016502;28;20462;-69
2020/12/30 06:15:14;;;;;;;2.80;2.07;;;2.30;99.90;;;;;;5016642;28;20493;-69
2020/12/30 06:17:51;;;;;;;2.40;1.80;;;2.30;99.90;;;;;;5016283;28;20931;-70
2020/12/30 06:20:21;;;;;;;3.40;2.00;;;2.20;99.90;;;;;;5016328;28;20477;-69
2020/12/30 06:22:53;;;;;;;3.30;2.90;;;2.20;99.90;;;;;;5016477;28;20474;-69
2020/12/30 06:25:20;;;;;;;3.87;2.20;;;2.20;99.90;;;;;;5016172;28;20886;-69
2020/12/30 06:27:48;;;;;;;7.93;2.90;;;2.10;99.90;;;;;;5016380;28;20475;-69
2020/12/30 06:30:15;;;;;;;2.07;1.90;;;2.10;99.90;;;;;;5016248;28;21010;-69
2020/12/30 06:32:42;;;;;;;4.40;2.10;;;2.10;99.90;;;;;;5015856;28;21021;-69
2020/12/30 06:35:10;;;;;;;2.90;2.53;;;2.10;99.90;;;;;;5016175;28;20886;-69
2020/12/30 06:37:38;;;;;;;2.90;2.17;;;2.10;99.90;;;;;;5016239;28;20878;-69
2020/12/30 06:40:29;;;;;;;3.60;2.10;;;2.20;99.90;;;;;;5016410;28;20459;-69
2020/12/30 06:42:57;;;;;;;3.23;2.97;;;2.10;99.90;;;;;;5016020;28;20470;-69
2020/12/30 06:45:49;;;;;;;3.27;2.57;;;2.10;99.90;;;;;;5016065;28;20443;-69
2020/12/30 06:48:16;;;;;;;4.73;2.93;;;2.00;99.90;;;;;;5016028;28;20475;-69
2020/12/30 06:50:42;;;;;;;3.47;2.50;;;1.90;99.90;;;;;;5015904;28;20467;-69
2020/12/30 06:53:27;;;;;;;3.23;2.10;;;2.00;99.90;;;;;;5007813;28;20789;-69
2020/12/30 06:55:54;;;;;;;2.90;2.53;;;2.00;99.90;;;;;;5015852;28;20458;-69
2020/12/30 06:58:49;;;;;;;3.17;2.10;;;1.90;99.90;;;;;;5015816;28;20451;-69
2020/12/30 07:01:17;;;;;;;3.27;2.40;;;2.00;99.90;;;;;;5015760;28;20419;-69
2020/12/30 07:03:44;;;;;;;3.03;1.97;;;1.90;99.90;;;;;;5015571;28;20955;-69
2020/12/30 07:06:31;;;;;;;2.90;2.10;;;1.90;99.90;;;;;;5015642;28;20418;-69
2020/12/30 07:09:00;;;;;;;3.03;2.67;;;1.90;99.90;;;;;;5015577;28;20470;-69
2020/12/30 07:11:49;;;;;;;2.30;2.10;;;1.90;99.90;;;;;;5014844;28;20495;-69
2020/12/30 07:14:18;;;;;;;2.83;2.10;;;1.80;99.90;;;;;;5015499;28;20425;-70
2020/12/30 07:16:49;;;;;;;3.23;2.50;;;1.90;99.90;;;;;;5015438;28;20451;-70
2020/12/30 07:19:18;;;;;;;2.70;2.30;;;1.80;99.90;;;;;;5015381;28;20450;-69
2020/12/30 07:21:56;;;;;;;4.57;3.03;;;1.80;99.90;;;;;;5015050;28;20477;-70
2020/12/30 07:24:24;;;;;;;3.37;2.63;;;1.90;99.90;;;;;;5015064;28;20931;-70
2020/12/30 07:26:53;;;;;;;8.80;3.00;;;1.90;99.90;;;;;;5015520;28;20454;-69
2020/12/30 07:29:20;;;;;;;2.83;2.57;;;2.00;99.90;;;;;;5015236;28;20426;-69
2020/12/30 07:31:52;;;;;;;2.20;2.03;;;1.90;99.90;;;;;;5015069;28;20484;-69
2020/12/30 07:34:20;;;;;;;3.00;2.67;;;1.90;99.90;;;;;;5015101;28;20444;-70
2020/12/30 07:36:47;;;;;;;3.50;3.17;;;1.90;99.90;;;;;;5014788;28;20943;-69
2020/12/30 07:39:14;;;;;;;4.17;2.47;;;2.00;99.90;;;;;;5015029;28;20523;-69
2020/12/30 07:41:45;;;;;;;2.37;2.03;;;2.00;99.90;;;;;;5014593;28;20939;-69
2020/12/30 07:44:12;;;;;;;2.53;2.00;;;2.00;99.90;;;;;;5007244;28;20427;-69
2020/12/30 07:46:39;;;;;;;2.10;1.90;;;2.00;99.90;;;;;;5014916;28;20406;-69
2020/12/30 07:49:13;;;;;;;2.53;2.30;;;2.10;99.90;;;;;;5014874;28;20410;-69
2020/12/30 07:51:47;;;;;;;1.83;1.73;;;2.10;99.90;;;;;;5014650;28;20533;-69
2020/12/30 07:54:15;;;;;;;2.00;1.90;;;2.10;99.90;;;;;;5014766;28;20402;-69
2020/12/30 07:56:41;;;;;;;3.07;2.80;;;2.10;99.90;;;;;;5015020;28;20766;-69
2020/12/30 07:59:08;;;;;;;2.90;2.00;;;2.10;99.90;;;;;;5014697;28;20486;-69
2020/12/30 08:01:35;;;;;;;3.73;1.80;;;2.20;99.90;;;;;;5014658;28;20399;-69
2020/12/30 08:04:08;;;;;;;1.97;1.67;;;2.20;99.90;;;;;;5014741;28;20468;-69
2020/12/30 08:06:44;;;;;;;2.47;1.77;;;2.30;99.90;;;;;;5014259;28;20928;-69
2020/12/30 08:09:11;;;;;;;2.80;1.73;;;2.30;99.90;;;;;;5014238;28;20466;-69
2020/12/30 08:11:46;;;;;;;1.70;1.30;;;2.20;99.90;;;;;;5014457;28;20905;-69
2020/12/30 08:14:13;;;;;;;1.53;1.43;;;2.30;99.90;;;;;;5014440;28;20481;-69
2020/12/30 08:16:39;;;;;;;0.90;0.90;;;2.40;99.90;;;;;;5014374;28;20448;-69
2020/12/30 08:19:05;;;;;;;2.30;1.20;;;2.40;99.90;;;;;;5014240;28;20456;-69
2020/12/30 08:21:31;;;;;;;2.00;1.23;;;2.40;99.90;;;;;;5013946;28;20476;-69
2020/12/30 08:24:09;;;;;;;1.20;1.10;;;2.40;99.90;;;;;;5013219;28;20521;-69
2020/12/30 08:26:36;;;;;;;1.77;1.10;;;2.60;99.90;;;;;;5014198;28;20443;-69
2020/12/30 08:29:03;;;;;;;1.10;1.10;;;2.70;99.90;;;;;;5013883;28;20819;-69
2020/12/30 08:31:41;;;;;;;1.10;1.00;;;2.70;99.90;;;;;;5014027;28;20475;-69
2020/12/30 08:34:10;;;;;;;1.40;1.00;;;2.80;99.90;;;;;;5014022;28;20438;-69
2020/12/30 08:36:42;;;;;;;1.20;1.10;;;2.90;99.90;;;;;;5014018;28;20455;-69
2020/12/30 08:39:10;;;;;;;1.90;1.20;;;2.80;99.90;;;;;;5014054;28;20775;-69
2020/12/30 08:41:49;;;;;;;2.70;0.90;;;2.90;99.90;;;;;;5013952;28;20455;-69
2020/12/30 08:44:19;;;;;;;1.20;1.10;;;2.90;99.90;;;;;;5013882;28;20432;-69
2020/12/30 08:46:48;;;;;;;1.83;1.50;;;2.90;99.90;;;;;;5013889;28;20954;-69
2020/12/30 08:49:16;;;;;;;1.93;1.77;;;3.00;99.90;;;;;;5013556;28;20861;-69
2020/12/30 08:51:42;;;;;;;1.73;1.63;;;2.90;99.90;;;;;;5013219;28;20479;-69
2020/12/30 08:54:14;;;;;;;2.63;2.43;;;2.90;99.90;;;;;;5013749;28;20448;-69
2020/12/30 08:56:42;;;;;;;1.40;1.30;;;2.90;99.90;;;;;;5013783;28;20432;-69
2020/12/30 08:59:08;;;;;;;1.63;1.50;;;2.90;99.90;;;;;;5013701;28;20444;-69
2020/12/30 09:01:34;;;;;;;2.50;1.93;;;3.00;99.90;;;;;;5013650;28;20444;-69
2020/12/30 09:04:11;;;;;;;1.57;1.47;;;3.00;99.90;;;;;;5013574;28;20442;-69
2020/12/30 09:06:40;;;;;;;1.73;1.47;;;3.10;99.90;;;;;;5013601;28;20452;-70
2020/12/30 09:09:11;;;;;;;1.67;0.97;;;3.20;99.90;;;;;;5013594;28;20643;-69
2020/12/30 09:11:38;;;;;;;1.43;1.03;;;3.30;99.90;;;;;;5013470;28;20511;-69
2020/12/30 09:14:18;;;;;;;1.33;1.23;;;3.40;99.90;;;;;;5013184;28;20481;-70
2020/12/30 09:16:54;;;;;;;1.10;1.10;;;3.50;99.90;;;;;;5013564;28;20431;-69
2020/12/30 09:19:22;;;;;;;1.87;1.10;;;3.50;99.90;;;;;;5013518;28;20432;-69
2020/12/30 09:21:48;;;;;;;1.80;1.20;;;3.60;99.90;;;;;;5013148;28;20475;-70
2020/12/30 09:24:16;;;;;;;1.67;1.10;;;3.80;99.90;;;;;;5013465;28;20439;-69
2020/12/30 09:26:42;;;;;;;2.13;1.10;;;4.00;99.90;;;;;;5013441;28;20432;-69
2020/12/30 09:29:18;;;;;;;1.43;0.90;;;4.10;99.90;;;;;;5013441;28;20428;-69
2020/12/30 09:31:52;;;;;;;0.80;0.80;;;4.30;99.90;;;;;;5013286;28;20467;-69
2020/12/30 09:34:18;;;;;;;1.00;0.80;;;4.50;99.90;;;;;;5014338;28;20439;-70
2020/12/30 09:36:56;;;;;;;3.07;1.10;;;4.70;99.90;;;;;;5017356;28;20507;-69
2020/12/30 09:39:22;;;;;;;1.10;0.80;;;5.50;99.90;;;;;;5017334;28;20481;-67
2020/12/30 09:41:49;;;;;;;1.00;1.00;;;7.30;99.90;;;;;;5017200;28;20426;-67
2020/12/30 09:44:15;;;;;;;1.00;0.90;;;8.30;99.90;;;;;;5017205;28;20431;-68
2020/12/30 09:46:51;;;;;;;1.20;0.80;;;8.80;99.90;;;;;;5017741;28;20756;-67
2020/12/30 09:49:18;;;;;;;0.80;0.80;;;8.70;99.90;;;;;;5016840;28;20428;-67
2020/12/30 09:51:44;;;;;;;0.90;0.80;;;8.20;99.90;;;;;;5016979;28;20475;-67
2020/12/30 09:54:11;;;;;;;1.03;0.80;;;7.50;99.90;;;;;;5017113;28;20844;-67
2020/12/30 09:56:37;;;;;;;0.90;0.90;;;7.10;99.90;;;;;;5017010;28;20483;-67
2020/12/30 09:59:04;;;;;;;1.43;1.30;;;6.70;99.90;;;;;;5016911;28;20439;-67
2020/12/30 10:01:30;;;;;;;1.73;1.00;;;6.30;99.90;;;;;;5016957;28;20430;-67
2020/12/30 10:03:57;;;;;;;1.83;1.40;;;6.00;99.90;;;;;;5016393;28;20840;-67
2020/12/30 10:06:24;;;;;;;2.37;0.90;;;5.80;99.90;;;;;;5016828;28;20442;-67
2020/12/30 10:08:50;;;;;;;1.53;0.93;;;5.60;99.90;;;;;;5016844;28;20428;-67
2020/12/30 10:11:18;;;;;;;1.30;0.90;;;5.50;99.90;;;;;;5016683;28;20541;-67
2020/12/30 10:13:45;;;;;;;1.40;1.00;;;5.30;99.90;;;;;;5016668;28;20495;-67
2020/12/30 10:16:11;;;;;;;1.37;0.90;;;5.10;99.90;;;;;;5016947;28;20474;-67
2020/12/30 10:18:37;;;;;;;1.27;0.83;;;5.10;99.90;;;;;;5016606;28;20427;-67
2020/12/30 10:21:03;;;;;;;1.83;1.07;;;5.00;99.90;;;;;;5016177;28;20479;-67
2020/12/30 10:23:30;;;;;;;0.90;0.90;;;5.10;99.90;;;;;;5016396;28;20467;-67
2020/12/30 10:25:56;;;;;;;1.23;1.00;;;5.00;99.90;;;;;;5016721;28;20431;-67
2020/12/30 10:28:23;;;;;;;1.00;0.90;;;4.90;99.90;;;;;;5016509;28;20838;-67
2020/12/30 10:30:49;;;;;;;1.57;1.00;;;5.00;99.90;;;;;;5016950;28;20439;-67
2020/12/30 10:33:15;;;;;;;0.80;0.70;;;5.00;99.90;;;;;;5015984;28;21002;-67
2020/12/30 10:35:41;;;;;;;1.30;1.20;;;5.00;99.90;;;;;;5016270;28;20440;-67
2020/12/30 10:38:08;;;;;;;1.47;1.20;;;5.10;99.90;;;;;;5015976;28;20912;-67
2020/12/30 10:40:34;;;;;;;1.10;1.00;;;5.20;99.90;;;;;;5016232;28;20431;-67
2020/12/30 10:43:03;;;;;;;1.83;0.90;;;5.30;99.90;;;;;;5016113;28;20455;-67
2020/12/30 10:45:30;;;;;;;0.90;0.90;;;5.30;99.90;;;;;;5015047;28;20916;-67
2020/12/30 10:47:57;;;;;;;1.13;1.03;;;5.50;99.90;;;;;;5016015;28;20424;-66
2020/12/30 10:50:23;;;;;;;1.63;0.90;;;5.60;99.90;;;;;;5016074;28;21025;-67
2020/12/30 10:52:49;;;;;;;1.10;1.10;;;5.60;99.90;;;;;;5015854;28;20528;-67
2020/12/30 10:55:17;;;;;;;1.30;1.00;;;5.50;99.90;;;;;;5015910;28;20431;-67
2020/12/30 10:57:43;;;;;;;0.90;0.90;;;5.40;99.90;;;;;;5015953;28;20530;-67
2020/12/30 11:00:10;;;;;;;1.53;1.10;;;5.40;99.90;;;;;;5015756;28;20443;-67
2020/12/30 11:02:37;;;;;;;2.00;0.70;;;5.40;99.90;;;;;;5015708;28;20464;-67
2020/12/30 11:05:03;;;;;;;0.93;0.80;;;5.40;99.90;;;;;;5015758;28;20811;-67
2020/12/30 11:07:29;;;;;;;1.73;0.90;;;5.50;99.90;;;;;;5015684;28;20458;-67
2020/12/30 11:09:55;;;;;;;1.37;1.00;;;5.70;99.90;;;;;;5015353;28;20938;-67
2020/12/30 11:12:21;;;;;;;0.90;0.90;;;5.80;99.90;;;;;;5015151;28;20574;-67
2020/12/30 11:14:48;;;;;;;0.93;0.93;;;5.90;99.90;;;;;;5015493;28;20440;-67
2020/12/30 11:17:14;;;;;;;0.90;0.83;;;5.90;99.90;;;;;;5015223;28;20916;-67
2020/12/30 11:19:41;;;;;;;0.80;0.80;;;5.90;99.90;;;;;;5015458;28;20451;-67
2020/12/30 11:22:07;;;;;;;0.87;0.70;;;5.90;99.90;;;;;;5014963;28;20514;-67
2020/12/30 11:24:33;;;;;;;0.90;0.70;;;5.90;99.90;;;;;;5015385;28;20456;-66
2020/12/30 11:27:00;;;;;;;0.80;0.80;;;5.90;99.90;;;;;;5015317;28;20447;-67
2020/12/30 11:29:26;;;;;;;2.03;0.80;;;5.90;99.90;;;;;;5015253;28;20463;-67
2020/12/30 11:31:52;;;;;;;1.07;0.83;;;5.90;99.90;;;;;;5014680;28;20995;-67
2020/12/30 11:34:18;;;;;;;1.10;1.00;;;5.80;99.90;;;;;;5015159;28;20447;-67
2020/12/30 11:36:46;;;;;;;1.07;0.97;;;5.70;99.90;;;;;;5014746;28;20459;-67
2020/12/30 11:39:12;;;;;;;0.80;0.80;;;5.60;99.90;;;;;;5015354;28;20452;-67
2020/12/30 11:41:38;;;;;;;0.80;0.80;;;5.60;99.90;;;;;;5014671;28;20439;-67
2020/12/30 11:44:05;;;;;;;3.03;1.10;;;5.60;99.90;;;;;;5014939;28;20446;-67
2020/12/30 11:46:31;;;;;;;0.83;0.83;;;5.70;99.90;;;;;;5014917;28;20555;-67
2020/12/30 11:48:58;;;;;;;1.57;0.93;;;5.60;99.90;;;;;;5014540;28;20498;-67
2020/12/30 11:51:24;;;;;;;1.67;1.30;;;5.60;99.90;;;;;;5014779;28;20476;-67
2020/12/30 11:53:51;;;;;;;4.10;1.23;;;5.60;99.90;;;;;;5014804;28;20808;-67
2020/12/30 11:56:21;;;;;;;1.30;1.10;;;5.60;99.90;;;;;;5014804;28;20451;-67
2020/12/30 11:58:48;;;;;;;2.50;1.40;;;5.60;99.90;;;;;;5014230;28;20436;-67
2020/12/30 12:01:14;;;;;;;1.33;1.20;;;5.60;99.90;;;;;;5014686;28;20448;-67
2020/12/30 12:03:41;;;;;;;1.63;1.53;;;5.60;99.90;;;;;;5014267;28;20988;-67
2020/12/30 12:06:07;;;;;;;1.40;1.30;;;5.60;99.90;;;;;;5014581;28;20447;-67
2020/12/30 12:08:33;;;;;;;1.47;1.37;;;5.50;99.90;;;;;;5014577;28;20447;-67
2020/12/30 12:11:00;;;;;;;1.20;1.20;;;5.50;99.90;;;;;;5014440;28;20448;-67
2020/12/30 12:13:27;;;;;;;1.67;1.50;;;5.50;99.90;;;;;;5014432;28;20460;-67
2020/12/30 12:15:53;;;;;;;2.10;1.50;;;5.50;99.90;;;;;;5014091;28;20965;-67
2020/12/30 12:18:19;;;;;;;2.10;1.90;;;5.60;99.90;;;;;;5014103;28;20939;-67
2020/12/30 12:20:45;;;;;;;2.43;2.23;;;5.80;99.90;;;;;;5013870;28;20479;-67
2020/12/30 12:23:11;;;;;;;3.50;3.17;;;6.00;99.90;;;;;;5014239;28;20467;-67
2020/12/30 12:25:41;;;;;;;2.97;1.60;;;6.00;99.90;;;;;;5014040;28;20424;-67
2020/12/30 12:28:08;;;;;;;1.70;1.60;;;5.90;99.90;;;;;;5014186;28;20435;-67
2020/12/30 12:30:34;;;;;;;1.67;1.57;;;5.80;99.90;;;;;;5014186;28;20432;-67
2020/12/30 12:33:00;;;;;;;1.93;1.40;;;5.90;99.90;;;;;;5013724;28;20483;-67
2020/12/30 12:35:27;;;;;;;4.20;1.80;;;6.10;99.90;;;;;;5014129;28;20427;-67
2020/12/30 12:38:05;;;;;;;2.30;1.97;;;6.20;99.90;;;;;;5014103;28;20427;-67
2020/12/30 12:40:31;;;;;;;1.47;1.33;;;6.20;99.90;;;;;;5014055;28;20442;-67
2020/12/30 12:42:58;;;;;;;1.50;1.40;;;6.10;99.90;;;;;;5013964;28;20463;-67
2020/12/30 12:45:25;;;;;;;1.77;1.67;;;6.20;99.90;;;;;;5013987;28;20482;-67
2020/12/30 12:47:51;;;;;;;2.53;2.00;;;6.30;99.90;;;;;;5013958;28;20451;-67
2020/12/30 12:50:17;;;;;;;3.33;2.30;;;6.40;99.90;;;;;;5013909;28;20439;-67
2020/12/30 12:52:43;;;;;;;1.50;1.40;;;6.40;99.90;;;;;;5013705;28;20494;-67
2020/12/30 12:55:10;;;;;;;2.70;1.60;;;6.50;99.90;;;;;;5013862;28;20820;-67
2020/12/30 12:57:36;;;;;;;1.70;1.60;;;6.40;99.90;;;;;;5013794;28;20436;-65
2020/12/30 13:00:02;;;;;;;3.80;2.03;;;6.30;99.90;;;;;;5013780;28;20485;-65
2020/12/30 13:02:29;;;;;;;1.70;1.60;;;6.30;99.90;;;;;;5013647;28;20467;-65